createdAt,value
2023-03-18T00:00:13.579Z,11.61
2023-03-18T00:02:42.292Z,11.61
2023-03-18T00:05:11.697Z,11.63
2023-03-18T00:07:40.598Z,11.67
2023-03-18T00:10:12.025Z,11.66
2023-03-18T00:12:41.865Z,11.64
2023-03-18T00:15:17.886Z,11.69
2023-03-18T00:17:46.724Z,11.69
2023-03-18T00:20:17.107Z,11.63
2023-03-18T00:22:46.869Z,11.66
2023-03-18T00:25:16.547Z,11.64
2023-03-18T00:27:44.884Z,11.63
2023-03-18T00:30:15.262Z,11.67
2023-03-18T00:32:43.676Z,11.68
2023-03-18T00:35:12.277Z,11.69
2023-03-18T00:37:40.752Z,11.68
2023-03-18T00:40:17.446Z,11.71
2023-03-18T00:42:50.576Z,11.72
2023-03-18T00:45:20.411Z,11.72
2023-03-18T00:47:50.214Z,11.75
2023-03-18T00:50:18.763Z,11.72
2023-03-18T00:52:47.027Z,11.72
2023-03-18T00:55:15.860Z,11.72
2023-03-18T00:57:44.196Z,11.70
2023-03-18T01:00:17.013Z,11.73
2023-03-18T01:02:49.299Z,11.71
2023-03-18T01:05:17.618Z,11.75
2023-03-18T01:07:46.450Z,11.72
2023-03-18T01:10:15.967Z,11.76
2023-03-18T01:12:46.686Z,11.79
2023-03-18T01:15:17.077Z,11.81
2023-03-18T01:17:47.122Z,11.81
2023-03-18T01:20:18.356Z,11.74
2023-03-18T01:22:50.492Z,11.81
2023-03-18T01:25:20.407Z,11.79
2023-03-18T01:27:52.511Z,11.75
2023-03-18T01:30:21.526Z,11.72
2023-03-18T01:32:51.542Z,11.69
2023-03-18T01:35:20.163Z,11.61
2023-03-18T01:37:51.553Z,11.53
2023-03-18T01:40:20.842Z,11.53
2023-03-18T01:42:57.129Z,11.51
2023-03-18T01:45:29.836Z,11.43
2023-03-18T01:48:02.397Z,11.43
2023-03-18T01:50:33.587Z,11.43
2023-03-18T01:53:06.343Z,11.38
2023-03-18T01:55:37.039Z,11.31
2023-03-18T01:58:11.356Z,11.31
2023-03-18T02:00:46.155Z,11.28
2023-03-18T02:03:16.762Z,11.28
2023-03-18T02:05:45.481Z,11.22
2023-03-18T02:08:14.090Z,11.22
2023-03-18T02:10:42.375Z,11.16
2023-03-18T02:13:16.005Z,11.13
2023-03-18T02:15:49.615Z,11.13
2023-03-18T02:18:25.173Z,11.14
2023-03-18T02:21:07.353Z,11.11
2023-03-18T02:23:42.879Z,11.09
2023-03-18T02:26:20.164Z,11.04
2023-03-18T02:28:51.853Z,11.04
2023-03-18T02:31:21.027Z,11.03
2023-03-18T02:33:49.976Z,11.03
2023-03-18T02:36:21.405Z,11.05
2023-03-18T02:38:50.439Z,11.05
2023-03-18T02:41:27.159Z,11.03
2023-03-18T02:43:57.113Z,11.00
2023-03-18T02:46:34.187Z,10.97
2023-03-18T02:49:04.704Z,10.96
2023-03-18T02:51:33.226Z,10.88
2023-03-18T02:54:06.541Z,10.82
2023-03-18T02:56:35.092Z,10.82
2023-03-18T02:59:04.913Z,10.80
2023-03-18T03:01:33.728Z,10.79
2023-03-18T03:04:02.738Z,10.79
2023-03-18T03:06:31.613Z,10.80
2023-03-18T03:09:00.606Z,10.78
2023-03-18T03:11:29.705Z,10.73
2023-03-18T03:14:06.978Z,10.71
2023-03-18T03:16:37.084Z,10.68
2023-03-18T03:19:05.934Z,10.64
2023-03-18T03:21:36.100Z,10.63
2023-03-18T03:24:04.881Z,10.64
2023-03-18T03:26:33.686Z,10.57
2023-03-18T03:29:01.980Z,10.53
2023-03-18T03:31:31.823Z,10.52
2023-03-18T03:34:00.830Z,10.53
2023-03-18T03:36:29.194Z,10.44
2023-03-18T03:38:58.167Z,10.40
2023-03-18T03:41:27.584Z,10.36
2023-03-18T03:43:56.092Z,10.39
2023-03-18T03:46:24.510Z,10.33
2023-03-18T03:48:54.345Z,10.27
2023-03-18T03:51:23.991Z,10.19
2023-03-18T03:53:52.804Z,10.16
2023-03-18T03:56:21.253Z,10.18
2023-03-18T03:58:49.577Z,10.14
2023-03-18T04:01:18.780Z,10.11
2023-03-18T04:03:48.583Z,10.06
2023-03-18T04:06:19.766Z,10.00
2023-03-18T04:08:57.167Z,10.01
2023-03-18T04:11:26.231Z,10.03
2023-03-18T04:13:54.704Z,9.99
2023-03-18T04:16:23.205Z,10.04
2023-03-18T04:18:51.666Z,10.01
2023-03-18T04:21:25.073Z,10.00
2023-03-18T04:23:56.592Z,10.00
2023-03-18T04:26:24.997Z,9.92
2023-03-18T04:28:55.039Z,9.89
2023-03-18T04:31:24.425Z,9.85
2023-03-18T04:33:52.702Z,9.78
2023-03-18T04:36:21.300Z,9.74
2023-03-18T04:38:51.452Z,9.70
2023-03-18T04:41:19.810Z,9.68
2023-03-18T04:43:48.914Z,9.66
2023-03-18T04:46:17.785Z,9.62
2023-03-18T04:48:48.229Z,9.53
2023-03-18T04:51:16.717Z,9.52
2023-03-18T04:53:45.144Z,9.50
2023-03-18T04:56:15.761Z,9.48
2023-03-18T04:58:49.651Z,9.48
2023-03-18T05:01:27.256Z,9.41
2023-03-18T05:03:56.111Z,9.40
2023-03-18T05:06:29.355Z,9.38
2023-03-18T05:09:02.787Z,9.35
2023-03-18T05:11:36.523Z,9.36
2023-03-18T05:14:15.596Z,9.36
2023-03-18T05:16:47.828Z,9.38
2023-03-18T05:19:17.253Z,9.33
2023-03-18T05:21:57.377Z,9.38
2023-03-18T05:24:26.306Z,9.32
2023-03-18T05:26:57.440Z,9.32
2023-03-18T05:29:32.227Z,9.26
2023-03-18T05:32:16.684Z,9.29
2023-03-18T05:34:46.712Z,9.27
2023-03-18T05:37:16.485Z,9.26
2023-03-18T05:39:50.882Z,9.23
2023-03-18T05:42:22.478Z,9.19
2023-03-18T05:44:51.032Z,9.18
2023-03-18T05:47:23.374Z,9.19
2023-03-18T05:50:07.421Z,9.21
2023-03-18T05:52:36.903Z,9.19
2023-03-18T05:55:08.469Z,9.18
2023-03-18T05:57:41.984Z,9.20
2023-03-18T06:00:13.517Z,9.18
2023-03-18T06:02:46.420Z,9.20
2023-03-18T06:05:16.014Z,9.14
2023-03-18T06:07:47.008Z,9.14
2023-03-18T06:10:16.794Z,9.10
2023-03-18T06:12:49.347Z,9.09
2023-03-18T06:15:18.853Z,9.10
2023-03-18T06:17:48.729Z,9.14
2023-03-18T06:20:18.698Z,9.16
2023-03-18T06:22:49.580Z,9.17
2023-03-18T06:25:19.849Z,9.16
2023-03-18T06:27:52.229Z,9.21
2023-03-18T06:30:23.972Z,9.27
2023-03-18T06:32:53.381Z,9.36
2023-03-18T06:35:26.641Z,9.47
2023-03-18T06:37:55.990Z,9.64
2023-03-18T06:40:25.710Z,9.80
2023-03-18T06:42:56.875Z,9.94
2023-03-18T06:45:31.404Z,10.06
2023-03-18T06:48:06.000Z,10.14
2023-03-18T06:50:39.642Z,10.27
2023-03-18T06:53:14.265Z,10.30
2023-03-18T06:55:44.032Z,10.39
2023-03-18T06:58:13.880Z,10.44
2023-03-18T07:00:49.181Z,10.45
2023-03-18T07:03:23.165Z,10.49
2023-03-18T07:05:54.430Z,10.50
2023-03-18T07:08:22.830Z,10.43
2023-03-18T07:10:56.275Z,10.40
2023-03-18T07:13:28.720Z,10.35
2023-03-18T07:15:57.525Z,10.37
2023-03-18T07:18:26.709Z,10.34
2023-03-18T07:20:55.130Z,10.27
2023-03-18T07:23:25.036Z,10.26
2023-03-18T07:25:53.299Z,10.24
2023-03-18T07:28:21.636Z,10.26
2023-03-18T07:30:53.960Z,10.23
2023-03-18T07:33:22.579Z,10.18
2023-03-18T07:35:51.181Z,10.20
2023-03-18T07:38:19.488Z,10.20
2023-03-18T07:40:48.315Z,10.20
2023-03-18T07:43:17.372Z,10.27
2023-03-18T07:45:45.681Z,10.33
2023-03-18T07:48:15.436Z,10.41
2023-03-18T07:50:43.736Z,10.42
2023-03-18T07:53:12.521Z,10.49
2023-03-18T07:55:41.880Z,10.58
2023-03-18T07:58:10.198Z,10.64
2023-03-18T08:00:39.330Z,10.67
2023-03-18T08:03:07.642Z,10.78
2023-03-18T08:05:37.309Z,10.78
2023-03-18T08:08:05.986Z,10.85
2023-03-18T08:10:35.460Z,10.92
2023-03-18T08:13:04.031Z,11.10
2023-03-18T08:15:32.589Z,11.28
2023-03-18T08:18:01.228Z,11.48
2023-03-18T08:20:29.497Z,11.62
2023-03-18T08:22:59.338Z,11.97
2023-03-18T08:25:27.838Z,12.28
2023-03-18T08:27:56.727Z,12.49
2023-03-18T08:30:28.739Z,12.35
2023-03-18T08:32:57.684Z,12.33
2023-03-18T08:35:25.992Z,12.36
2023-03-18T08:37:55.617Z,12.65
2023-03-18T08:40:26.083Z,13.06
2023-03-18T08:42:54.936Z,13.26
2023-03-18T08:45:23.217Z,13.12
2023-03-18T08:47:51.533Z,13.25
2023-03-18T08:50:20.846Z,13.48
2023-03-18T08:52:49.106Z,13.40
2023-03-18T08:55:17.516Z,13.46
2023-03-18T08:57:47.539Z,13.49
2023-03-18T09:00:16.790Z,13.43
2023-03-18T09:02:45.037Z,13.38
2023-03-18T09:05:13.328Z,13.40
2023-03-18T09:07:41.698Z,13.50
2023-03-18T09:10:12.933Z,13.47
2023-03-18T09:12:42.323Z,13.46
2023-03-18T09:15:14.818Z,13.30
2023-03-18T09:17:59.917Z,13.05
2023-03-18T09:20:33.377Z,12.89
2023-03-18T09:23:02.449Z,12.84
2023-03-18T09:25:31.103Z,12.72
2023-03-18T09:28:00.934Z,12.60
2023-03-18T09:30:31.965Z,12.53
2023-03-18T09:33:00.417Z,12.38
2023-03-18T09:35:29.814Z,12.35
2023-03-18T09:37:58.145Z,12.22
2023-03-18T09:40:29.485Z,12.32
2023-03-18T09:43:08.874Z,12.37
2023-03-18T09:45:50.838Z,12.47
2023-03-18T09:48:51.700Z,12.59
2023-03-18T09:51:31.590Z,12.72
2023-03-18T09:54:04.411Z,13.00
2023-03-18T09:56:36.018Z,13.10
2023-03-18T09:59:07.431Z,13.15
2023-03-18T10:01:40.397Z,13.26
2023-03-18T10:04:16.821Z,13.10
2023-03-18T10:06:47.248Z,13.04
2023-03-18T10:09:20.269Z,12.88
2023-03-18T10:11:49.874Z,12.78
2023-03-18T10:14:31.922Z,12.87
2023-03-18T10:17:14.515Z,12.73
2023-03-18T10:19:47.561Z,12.79
2023-03-18T10:22:35.787Z,12.70
2023-03-18T10:25:12.440Z,12.72
2023-03-18T10:27:51.772Z,12.85
2023-03-18T10:30:34.216Z,12.88
2023-03-18T10:33:14.842Z,12.95
2023-03-18T10:35:49.996Z,13.04
2023-03-18T10:38:23.127Z,13.00
2023-03-18T10:40:51.519Z,13.36
2023-03-18T10:43:22.944Z,13.61
2023-03-18T10:45:59.903Z,13.56
2023-03-18T10:48:33.457Z,13.97
2023-03-18T10:51:11.313Z,14.78
2023-03-18T10:53:44.000Z,15.14
2023-03-18T10:56:14.010Z,14.78
2023-03-18T10:58:43.436Z,14.72
2023-03-18T11:01:14.077Z,14.92
2023-03-18T11:03:48.735Z,14.83
2023-03-18T11:06:21.170Z,14.86
2023-03-18T11:08:50.015Z,14.94
2023-03-18T11:11:26.128Z,15.26
2023-03-18T11:13:55.929Z,15.51
2023-03-18T11:16:30.581Z,15.21
2023-03-18T11:19:00.306Z,15.56
2023-03-18T11:21:29.896Z,15.67
2023-03-18T11:24:24.567Z,16.02
2023-03-18T11:26:56.536Z,15.92
2023-03-18T11:29:29.069Z,16.00
2023-03-18T11:31:59.121Z,15.30
2023-03-18T11:34:30.752Z,15.31
2023-03-18T11:37:04.441Z,14.94
2023-03-18T11:39:37.536Z,14.96
2023-03-18T11:42:18.888Z,15.37
2023-03-18T11:44:47.728Z,15.23
2023-03-18T11:47:20.793Z,15.67
2023-03-18T11:49:50.464Z,15.74
2023-03-18T11:52:31.390Z,16.21
2023-03-18T11:55:10.926Z,16.44
2023-03-18T11:57:58.347Z,16.07
2023-03-18T12:00:34.004Z,16.22
2023-03-18T12:03:45.512Z,16.77
2023-03-18T12:06:21.899Z,16.26
2023-03-18T12:09:01.628Z,16.64
2023-03-18T12:11:46.954Z,16.60
2023-03-18T12:14:25.874Z,17.00
2023-03-18T12:17:03.975Z,17.36
2023-03-18T12:20:02.878Z,17.14
2023-03-18T12:22:53.100Z,16.91
2023-03-18T12:25:47.598Z,16.70
2023-03-18T12:28:27.815Z,17.35
2023-03-18T12:31:29.362Z,17.56
2023-03-18T12:34:01.572Z,16.75
2023-03-18T12:36:42.502Z,16.92
2023-03-18T12:39:47.885Z,16.70
2023-03-18T12:42:27.118Z,16.80
2023-03-18T12:45:01.087Z,17.14
2023-03-18T12:47:37.000Z,16.91
2023-03-18T12:50:15.608Z,16.73
2023-03-18T12:52:49.204Z,16.56
2023-03-18T12:55:22.931Z,16.75
2023-03-18T12:57:57.670Z,16.98
2023-03-18T13:00:32.253Z,17.09
2023-03-18T13:03:07.500Z,16.93
2023-03-18T13:05:46.517Z,16.70
2023-03-18T13:08:28.318Z,16.91
2023-03-18T13:11:06.015Z,17.22
2023-03-18T13:13:39.606Z,17.51
2023-03-18T13:16:09.068Z,17.37
2023-03-18T13:18:43.478Z,17.14
2023-03-18T13:21:16.088Z,17.15
2023-03-18T13:24:22.977Z,16.99
2023-03-18T13:27:13.848Z,16.78
2023-03-18T13:29:50.701Z,16.50
2023-03-18T13:32:38.598Z,16.21
2023-03-18T13:35:23.565Z,16.14
2023-03-18T13:38:08.762Z,16.05
2023-03-18T13:41:08.735Z,15.93
2023-03-18T13:43:41.489Z,17.01
2023-03-18T13:46:20.672Z,17.53
2023-03-18T13:48:50.160Z,17.47
2023-03-18T13:51:42.288Z,17.01
2023-03-18T13:54:18.861Z,17.06
2023-03-18T13:56:50.499Z,18.10
2023-03-18T13:59:46.924Z,18.36
2023-03-18T14:02:35.500Z,17.89
2023-03-18T14:05:04.195Z,17.44
2023-03-18T14:07:33.095Z,17.97
2023-03-18T14:10:20.451Z,17.82
2023-03-18T14:12:49.394Z,17.75
2023-03-18T14:15:45.539Z,17.41
2023-03-18T14:18:28.643Z,17.25
2023-03-18T14:21:04.633Z,17.66
2023-03-18T14:23:46.471Z,18.24
2023-03-18T14:26:24.107Z,17.93
2023-03-18T14:28:57.249Z,17.46
2023-03-18T14:31:35.157Z,17.09
2023-03-18T14:34:21.118Z,16.82
2023-03-18T14:37:25.407Z,16.54
2023-03-18T14:39:56.810Z,16.61
2023-03-18T14:42:31.638Z,16.57
2023-03-18T14:45:06.702Z,16.44
2023-03-18T14:47:42.926Z,16.44
2023-03-18T14:50:30.513Z,16.20
2023-03-18T14:53:05.475Z,16.07
2023-03-18T14:55:36.614Z,16.19
2023-03-18T14:58:05.390Z,16.41
2023-03-18T15:00:36.412Z,16.36
2023-03-18T15:03:08.784Z,16.10
2023-03-18T15:05:41.147Z,16.03
2023-03-18T15:08:15.015Z,15.91
2023-03-18T15:10:44.727Z,15.97
2023-03-18T15:13:15.369Z,15.76
2023-03-18T15:15:43.988Z,15.74
2023-03-18T15:18:19.637Z,15.63
2023-03-18T15:20:52.696Z,15.67
2023-03-18T15:23:27.065Z,15.68
2023-03-18T15:25:55.978Z,15.76
2023-03-18T15:28:26.670Z,15.87
2023-03-18T15:30:56.411Z,15.86
2023-03-18T15:33:27.252Z,15.98
2023-03-18T15:35:58.826Z,16.08
2023-03-18T15:38:29.125Z,16.06
2023-03-18T15:41:01.587Z,16.28
2023-03-18T15:43:35.541Z,16.54
2023-03-18T15:46:09.511Z,16.47
2023-03-18T15:48:41.605Z,16.33
2023-03-18T15:51:26.033Z,16.25
2023-03-18T15:53:58.830Z,16.26
2023-03-18T15:56:29.691Z,16.02
2023-03-18T15:59:02.625Z,16.01
2023-03-18T16:01:31.093Z,15.85
2023-03-18T16:04:00.607Z,15.74
2023-03-18T16:06:34.336Z,15.68
2023-03-18T16:09:18.273Z,15.55
2023-03-18T16:11:49.574Z,15.53
2023-03-18T16:14:19.706Z,15.47
2023-03-18T16:16:48.672Z,15.44
2023-03-18T16:19:24.898Z,15.36
2023-03-18T16:21:54.980Z,15.32
2023-03-18T16:24:23.815Z,15.26
2023-03-18T16:26:53.509Z,15.25
2023-03-18T16:29:27.818Z,15.27
2023-03-18T16:31:56.325Z,15.21
2023-03-18T16:34:24.714Z,15.16
2023-03-18T16:36:54.431Z,15.08
2023-03-18T16:39:25.057Z,15.08
2023-03-18T16:41:53.704Z,15.02
2023-03-18T16:44:23.851Z,15.02
2023-03-18T16:46:55.515Z,15.02
2023-03-18T16:49:25.906Z,14.96
2023-03-18T16:51:55.590Z,14.99
2023-03-18T16:54:25.778Z,15.07
2023-03-18T16:56:57.497Z,14.97
2023-03-18T16:59:31.542Z,14.73
2023-03-18T17:02:00.779Z,14.53
2023-03-18T17:04:31.590Z,14.40
2023-03-18T17:07:03.740Z,14.28
2023-03-18T17:09:33.020Z,14.25
2023-03-18T17:12:05.633Z,14.14
2023-03-18T17:14:37.546Z,14.08
2023-03-18T17:17:08.563Z,14.03
2023-03-18T17:19:36.858Z,13.96
2023-03-18T17:22:20.994Z,13.89
2023-03-18T17:24:49.874Z,13.74
2023-03-18T17:27:22.058Z,13.52
2023-03-18T17:29:51.112Z,12.07
2023-03-18T17:32:19.566Z,11.90
2023-03-18T17:34:50.487Z,11.62
2023-03-18T17:37:20.370Z,11.67
2023-03-18T17:39:48.747Z,11.62
2023-03-18T17:42:28.637Z,11.58
2023-03-18T17:44:57.633Z,11.61
2023-03-18T17:47:26.346Z,11.64
2023-03-18T17:49:54.930Z,11.60
2023-03-18T17:52:25.213Z,11.57
2023-03-18T17:54:53.509Z,11.52
2023-03-18T17:57:21.727Z,11.55
2023-03-18T17:59:50.028Z,11.57
2023-03-18T18:02:20.353Z,11.53
2023-03-18T18:04:48.693Z,11.53
2023-03-18T18:07:18.875Z,11.53
2023-03-18T18:09:49.211Z,11.49
2023-03-18T18:12:21.485Z,11.48
2023-03-18T18:14:50.011Z,11.39
2023-03-18T18:17:19.274Z,11.20
2023-03-18T18:19:47.567Z,11.15
2023-03-18T18:22:17.938Z,11.11
2023-03-18T18:24:47.164Z,11.04
2023-03-18T18:27:16.931Z,10.96
2023-03-18T18:29:45.983Z,10.98
2023-03-18T18:32:15.636Z,10.87
2023-03-18T18:34:43.965Z,10.92
2023-03-18T18:37:12.782Z,10.82
2023-03-18T18:39:42.599Z,10.81
2023-03-18T18:42:12.369Z,10.83
2023-03-18T18:44:43.375Z,10.83
2023-03-18T18:47:19.165Z,10.82
2023-03-18T18:49:47.993Z,10.75
2023-03-18T18:52:16.978Z,10.82
2023-03-18T18:54:45.220Z,10.74
2023-03-18T18:57:24.535Z,10.81
2023-03-18T18:59:54.304Z,10.79
2023-03-18T19:02:30.706Z,10.71
2023-03-18T19:05:00.039Z,10.85
2023-03-18T19:07:29.362Z,10.68
2023-03-18T19:09:57.638Z,10.77
2023-03-18T19:12:27.582Z,10.74
2023-03-18T19:14:57.399Z,10.71
2023-03-18T19:17:25.934Z,10.70
2023-03-18T19:19:54.713Z,10.71
2023-03-18T19:22:23.465Z,10.71
2023-03-18T19:24:51.738Z,10.69
2023-03-18T19:27:24.139Z,10.67
2023-03-18T19:29:54.138Z,10.68
2023-03-18T19:32:25.590Z,10.63
2023-03-18T19:34:54.748Z,10.64
2023-03-18T19:37:27.293Z,10.64
2023-03-18T19:39:55.857Z,10.66
2023-03-18T19:42:24.285Z,10.63
2023-03-18T19:44:52.908Z,10.56
2023-03-18T19:47:26.204Z,10.66
2023-03-18T19:49:55.126Z,10.60
2023-03-18T19:52:25.261Z,10.66
2023-03-18T19:54:54.069Z,10.65
2023-03-18T19:57:25.562Z,10.65
2023-03-18T19:59:56.342Z,10.63
2023-03-18T20:02:28.669Z,10.64
2023-03-18T20:04:59.180Z,10.67
2023-03-18T20:07:29.990Z,10.71
2023-03-18T20:09:58.382Z,10.66
2023-03-18T20:12:30.764Z,10.69
2023-03-18T20:14:59.063Z,10.70
2023-03-18T20:17:37.414Z,10.67
2023-03-18T20:20:07.339Z,10.71
2023-03-18T20:22:38.417Z,10.67
2023-03-18T20:25:09.403Z,10.60
2023-03-18T20:27:37.815Z,10.68
2023-03-18T20:30:17.416Z,10.68
2023-03-18T20:32:47.163Z,10.63
2023-03-18T20:35:15.734Z,10.67
2023-03-18T20:37:44.101Z,10.67
2023-03-18T20:40:20.222Z,10.68
2023-03-18T20:42:48.781Z,10.77
2023-03-18T20:45:17.820Z,10.71
2023-03-18T20:47:47.542Z,10.80
2023-03-18T20:50:17.894Z,10.80
2023-03-18T20:52:48.149Z,10.84
2023-03-18T20:55:25.357Z,10.79
2023-03-18T20:57:54.705Z,10.74
2023-03-18T21:00:24.675Z,10.83
2023-03-18T21:02:56.355Z,10.79
2023-03-18T21:05:25.146Z,10.81
2023-03-18T21:07:53.883Z,10.75
2023-03-18T21:10:24.365Z,10.89
2023-03-18T21:12:53.305Z,10.82
2023-03-18T21:15:24.728Z,10.85
2023-03-18T21:17:55.002Z,10.83
2023-03-18T21:20:27.260Z,10.81
2023-03-18T21:22:56.436Z,10.84
2023-03-18T21:25:26.340Z,10.83
2023-03-18T21:27:55.197Z,10.80
2023-03-18T21:30:24.437Z,10.78
2023-03-18T21:32:54.192Z,10.73
2023-03-18T21:35:24.720Z,10.75
2023-03-18T21:37:53.971Z,10.69
2023-03-18T21:40:23.669Z,10.65
2023-03-18T21:42:52.340Z,10.63
2023-03-18T21:45:22.920Z,10.62
2023-03-18T21:47:52.533Z,10.67
2023-03-18T21:50:24.399Z,10.58
2023-03-18T21:52:53.790Z,10.58
2023-03-18T21:55:22.990Z,10.59
2023-03-18T21:57:51.356Z,10.60
2023-03-18T22:00:21.592Z,10.54
2023-03-18T22:02:50.643Z,10.58
2023-03-18T22:05:21.699Z,10.58
2023-03-18T22:07:51.806Z,10.65
2023-03-18T22:10:22.913Z,10.59
2023-03-18T22:12:51.756Z,10.67
2023-03-18T22:15:38.606Z,10.66
2023-03-18T22:18:07.790Z,10.66
2023-03-18T22:20:36.502Z,10.60
2023-03-18T22:23:13.910Z,10.52
2023-03-18T22:25:42.397Z,10.50
2023-03-18T22:28:12.148Z,10.59
2023-03-18T22:30:42.613Z,10.53
2023-03-18T22:33:20.129Z,10.58
2023-03-18T22:35:48.807Z,10.58
2023-03-18T22:38:20.348Z,10.59
2023-03-18T22:40:52.166Z,10.64
2023-03-18T22:43:29.451Z,10.73
2023-03-18T22:45:58.509Z,10.77
2023-03-18T22:48:26.835Z,10.81
2023-03-18T22:50:55.959Z,10.74
2023-03-18T22:53:29.212Z,10.66
2023-03-18T22:55:58.208Z,10.73
2023-03-18T22:58:28.258Z,10.62
2023-03-18T23:00:57.274Z,10.65
2023-03-18T23:03:29.424Z,10.65
2023-03-18T23:05:58.681Z,10.58
2023-03-18T23:08:28.744Z,10.59
2023-03-18T23:10:59.992Z,10.58
2023-03-18T23:13:30.101Z,10.60
2023-03-18T23:15:59.194Z,10.58
2023-03-18T23:18:27.538Z,10.55
2023-03-18T23:20:55.847Z,10.53
2023-03-18T23:23:24.647Z,10.51
2023-03-18T23:25:54.287Z,10.51
2023-03-18T23:28:22.712Z,10.51
2023-03-18T23:30:53.040Z,10.50
2023-03-18T23:33:21.543Z,10.41
2023-03-18T23:35:49.868Z,10.40
2023-03-18T23:38:18.183Z,10.30
2023-03-18T23:40:46.479Z,10.27
2023-03-18T23:43:16.166Z,10.28
2023-03-18T23:45:44.596Z,10.35
2023-03-18T23:48:12.906Z,10.38
2023-03-18T23:50:41.381Z,10.40
2023-03-18T23:53:09.681Z,10.44
2023-03-18T23:55:38.673Z,10.42
2023-03-18T23:58:06.964Z,10.38
